Terminal Aerodrome Forecast
Issued by NWS

Home | Current Version | Previous Version | Text Only | Print | Product List | Glossary On
Versions: 1 2 3 4 5 6 7 8 9 10 11 12 13 14 15 16 17 18 19 20 21 22 23 24 25 26
000
FTUS44 KMOB 251143
TAFBFM
TAF
KBFM 251143Z 2512/2612 30005KT P6SM VCSH SCT030 BKN150 OVC250
      TEMPO 2512/2516 5SM -SHRA BR SCT020 BKN030
     FM251700 32008KT P6SM VCTS SCT035CB BKN150
      TEMPO 2517/2521 3SM TSRA BKN030CB
     FM260000 35004KT P6SM SCT030 BKN150 OVC250=

USA.gov is the U.S. government's official web portal to all federal, state and local government web resources and services.